sensor_id;sensor_type;location;lat;lon;timestamp;P1;durP1;ratioP1;P2;durP2;ratioP2
21546;SDS011;41275;51.912;4.388;2023-07-29T00:03:20;4.67;;;1.43;;
21546;SDS011;41275;51.912;4.388;2023-07-29T00:08:41;2.92;;;1.02;;
21546;SDS011;41275;51.912;4.388;2023-07-29T00:14:02;2.50;;;0.85;;
21546;SDS011;41275;51.912;4.388;2023-07-29T00:19:23;4.38;;;1.50;;
21546;SDS011;41275;51.912;4.388;2023-07-29T00:24:46;3.77;;;1.10;;
21546;SDS011;41275;51.912;4.388;2023-07-29T00:30:12;3.45;;;0.98;;
21546;SDS011;41275;51.912;4.388;2023-07-29T00:35:34;5.63;;;1.40;;
21546;SDS011;41275;51.912;4.388;2023-07-29T00:40:59;6.03;;;1.15;;
21546;SDS011;41275;51.912;4.388;2023-07-29T00:46:22;4.90;;;0.98;;
21546;SDS011;41275;51.912;4.388;2023-07-29T00:51:45;3.27;;;1.00;;
21546;SDS011;41275;51.912;4.388;2023-07-29T00:57:06;1.63;;;0.70;;
21546;SDS011;41275;51.912;4.388;2023-07-29T01:02:29;4.23;;;1.00;;
21546;SDS011;41275;51.912;4.388;2023-07-29T01:08:01;1.53;;;0.60;;
21546;SDS011;41275;51.912;4.388;2023-07-29T01:13:53;2.95;;;0.90;;
21546;SDS011;41275;51.912;4.388;2023-07-29T01:19:48;2.37;;;0.67;;
21546;SDS011;41275;51.912;4.388;2023-07-29T01:25:20;2.88;;;0.82;;
21546;SDS011;41275;51.912;4.388;2023-07-29T01:30:42;6.15;;;1.33;;
21546;SDS011;41275;51.912;4.388;2023-07-29T01:36:07;3.65;;;1.00;;
21546;SDS011;41275;51.912;4.388;2023-07-29T01:41:34;4.32;;;1.40;;
21546;SDS011;41275;51.912;4.388;2023-07-29T01:46:56;3.90;;;1.08;;
21546;SDS011;41275;51.912;4.388;2023-07-29T01:52:17;2.17;;;1.10;;
21546;SDS011;41275;51.912;4.388;2023-07-29T01:57:39;3.95;;;1.00;;
21546;SDS011;41275;51.912;4.388;2023-07-29T02:03:00;3.80;;;1.10;;
21546;SDS011;41275;51.912;4.388;2023-07-29T02:08:21;2.80;;;1.10;;
21546;SDS011;41275;51.912;4.388;2023-07-29T02:13:42;2.00;;;0.98;;
21546;SDS011;41275;51.912;4.388;2023-07-29T02:19:04;4.93;;;1.35;;
21546;SDS011;41275;51.912;4.388;2023-07-29T02:24:25;2.10;;;1.00;;
21546;SDS011;41275;51.912;4.388;2023-07-29T02:29:47;3.17;;;1.03;;
21546;SDS011;41275;51.912;4.388;2023-07-29T02:35:08;4.80;;;0.90;;
21546;SDS011;41275;51.912;4.388;2023-07-29T02:40:29;3.90;;;1.23;;
21546;SDS011;41275;51.912;4.388;2023-07-29T02:45:50;3.30;;;1.10;;
21546;SDS011;41275;51.912;4.388;2023-07-29T02:51:12;2.20;;;0.83;;
21546;SDS011;41275;51.912;4.388;2023-07-29T02:56:33;3.00;;;1.15;;
21546;SDS011;41275;51.912;4.388;2023-07-29T03:01:54;4.28;;;1.30;;
21546;SDS011;41275;51.912;4.388;2023-07-29T03:07:15;4.97;;;1.27;;
21546;SDS011;41275;51.912;4.388;2023-07-29T03:12:37;2.60;;;1.10;;
21546;SDS011;41275;51.912;4.388;2023-07-29T03:17:58;1.90;;;0.98;;
21546;SDS011;41275;51.912;4.388;2023-07-29T03:23:19;3.60;;;1.20;;
21546;SDS011;41275;51.912;4.388;2023-07-29T03:28:41;3.35;;;1.35;;
21546;SDS011;41275;51.912;4.388;2023-07-29T03:34:03;3.70;;;1.75;;
21546;SDS011;41275;51.912;4.388;2023-07-29T03:39:24;3.60;;;1.55;;
21546;SDS011;41275;51.912;4.388;2023-07-29T03:44:45;4.43;;;1.77;;
21546;SDS011;41275;51.912;4.388;2023-07-29T03:50:06;6.00;;;1.75;;
21546;SDS011;41275;51.912;4.388;2023-07-29T03:55:28;6.25;;;1.55;;
21546;SDS011;41275;51.912;4.388;2023-07-29T04:00:50;4.88;;;1.90;;
21546;SDS011;41275;51.912;4.388;2023-07-29T04:06:12;6.77;;;1.83;;
21546;SDS011;41275;51.912;4.388;2023-07-29T04:11:33;5.15;;;2.05;;
21546;SDS011;41275;51.912;4.388;2023-07-29T04:16:54;4.35;;;1.95;;
21546;SDS011;41275;51.912;4.388;2023-07-29T04:22:16;5.37;;;2.20;;
21546;SDS011;41275;51.912;4.388;2023-07-29T04:27:37;5.53;;;2.05;;
21546;SDS011;41275;51.912;4.388;2023-07-29T04:32:58;5.37;;;1.80;;
21546;SDS011;41275;51.912;4.388;2023-07-29T04:38:19;6.38;;;1.83;;
21546;SDS011;41275;51.912;4.388;2023-07-29T04:43:40;5.93;;;1.90;;
21546;SDS011;41275;51.912;4.388;2023-07-29T04:49:02;5.57;;;2.00;;
21546;SDS011;41275;51.912;4.388;2023-07-29T04:54:23;6.40;;;1.93;;
21546;SDS011;41275;51.912;4.388;2023-07-29T04:59:44;4.15;;;1.90;;
21546;SDS011;41275;51.912;4.388;2023-07-29T05:05:06;4.67;;;1.90;;
21546;SDS011;41275;51.912;4.388;2023-07-29T05:10:27;5.15;;;2.15;;
21546;SDS011;41275;51.912;4.388;2023-07-29T05:15:48;6.83;;;1.90;;
21546;SDS011;41275;51.912;4.388;2023-07-29T05:21:10;4.88;;;1.92;;
21546;SDS011;41275;51.912;4.388;2023-07-29T05:26:35;7.63;;;1.80;;
21546;SDS011;41275;51.912;4.388;2023-07-29T05:31:56;5.40;;;1.90;;
21546;SDS011;41275;51.912;4.388;2023-07-29T05:37:17;5.73;;;1.57;;
21546;SDS011;41275;51.912;4.388;2023-07-29T05:42:39;4.13;;;1.60;;
21546;SDS011;41275;51.912;4.388;2023-07-29T05:48:00;6.17;;;1.73;;
21546;SDS011;41275;51.912;4.388;2023-07-29T05:53:21;6.40;;;1.85;;
21546;SDS011;41275;51.912;4.388;2023-07-29T05:58:42;5.17;;;1.70;;
21546;SDS011;41275;51.912;4.388;2023-07-29T06:04:05;3.33;;;1.50;;
21546;SDS011;41275;51.912;4.388;2023-07-29T06:09:26;4.63;;;1.52;;
21546;SDS011;41275;51.912;4.388;2023-07-29T06:14:47;5.83;;;1.60;;
21546;SDS011;41275;51.912;4.388;2023-07-29T06:20:08;5.38;;;1.40;;
21546;SDS011;41275;51.912;4.388;2023-07-29T06:25:30;5.60;;;1.77;;
21546;SDS011;41275;51.912;4.388;2023-07-29T06:30:51;3.83;;;1.60;;
21546;SDS011;41275;51.912;4.388;2023-07-29T06:36:13;5.28;;;1.38;;
21546;SDS011;41275;51.912;4.388;2023-07-29T06:41:34;5.47;;;1.40;;
21546;SDS011;41275;51.912;4.388;2023-07-29T06:46:55;4.13;;;1.35;;
21546;SDS011;41275;51.912;4.388;2023-07-29T06:52:18;4.50;;;1.33;;
21546;SDS011;41275;51.912;4.388;2023-07-29T06:57:39;4.53;;;1.63;;
21546;SDS011;41275;51.912;4.388;2023-07-29T07:03:01;4.80;;;1.40;;
21546;SDS011;41275;51.912;4.388;2023-07-29T07:08:22;6.33;;;1.37;;
21546;SDS011;41275;51.912;4.388;2023-07-29T07:13:44;3.92;;;1.20;;
21546;SDS011;41275;51.912;4.388;2023-07-29T07:19:05;4.40;;;1.17;;
21546;SDS011;41275;51.912;4.388;2023-07-29T07:24:26;4.80;;;1.38;;
21546;SDS011;41275;51.912;4.388;2023-07-29T07:29:48;1.97;;;0.90;;
21546;SDS011;41275;51.912;4.388;2023-07-29T07:35:09;4.15;;;1.08;;
21546;SDS011;41275;51.912;4.388;2023-07-29T07:40:30;3.60;;;1.00;;
21546;SDS011;41275;51.912;4.388;2023-07-29T07:45:57;7.93;;;1.20;;
21546;SDS011;41275;51.912;4.388;2023-07-29T07:51:19;3.50;;;1.10;;
21546;SDS011;41275;51.912;4.388;2023-07-29T07:56:40;7.97;;;1.90;;
21546;SDS011;41275;51.912;4.388;2023-07-29T08:02:01;3.25;;;1.20;;
21546;SDS011;41275;51.912;4.388;2023-07-29T08:07:23;5.63;;;1.20;;
21546;SDS011;41275;51.912;4.388;2023-07-29T08:12:44;6.10;;;1.10;;
21546;SDS011;41275;51.912;4.388;2023-07-29T08:18:05;3.75;;;1.40;;
21546;SDS011;41275;51.912;4.388;2023-07-29T08:23:26;4.82;;;1.67;;
21546;SDS011;41275;51.912;4.388;2023-07-29T08:28:48;4.13;;;1.50;;
21546;SDS011;41275;51.912;4.388;2023-07-29T08:34:09;4.65;;;1.20;;
21546;SDS011;41275;51.912;4.388;2023-07-29T08:39:30;2.65;;;1.25;;
21546;SDS011;41275;51.912;4.388;2023-07-29T08:44:51;3.83;;;1.57;;
21546;SDS011;41275;51.912;4.388;2023-07-29T08:50:15;4.33;;;1.37;;
21546;SDS011;41275;51.912;4.388;2023-07-29T08:55:37;2.83;;;1.13;;
21546;SDS011;41275;51.912;4.388;2023-07-29T09:00:59;4.57;;;1.50;;
21546;SDS011;41275;51.912;4.388;2023-07-29T09:06:21;3.07;;;1.33;;
21546;SDS011;41275;51.912;4.388;2023-07-29T09:11:46;2.70;;;1.40;;
21546;SDS011;41275;51.912;4.388;2023-07-29T09:17:08;2.42;;;1.20;;
21546;SDS011;41275;51.912;4.388;2023-07-29T09:22:30;3.75;;;1.17;;
21546;SDS011;41275;51.912;4.388;2023-07-29T09:27:52;2.63;;;1.00;;
21546;SDS011;41275;51.912;4.388;2023-07-29T09:33:13;3.25;;;1.05;;
21546;SDS011;41275;51.912;4.388;2023-07-29T09:38:34;1.33;;;0.80;;
21546;SDS011;41275;51.912;4.388;2023-07-29T09:43:57;1.45;;;0.68;;
21546;SDS011;41275;51.912;4.388;2023-07-29T09:49:25;1.50;;;0.60;;
21546;SDS011;41275;51.912;4.388;2023-07-29T09:54:46;1.77;;;0.47;;
21546;SDS011;41275;51.912;4.388;2023-07-29T10:00:10;1.00;;;0.40;;
21546;SDS011;41275;51.912;4.388;2023-07-29T10:05:32;1.50;;;0.40;;
21546;SDS011;41275;51.912;4.388;2023-07-29T10:10:57;2.00;;;0.38;;
21546;SDS011;41275;51.912;4.388;2023-07-29T10:16:20;1.85;;;0.40;;
21546;SDS011;41275;51.912;4.388;2023-07-29T10:21:45;1.08;;;0.57;;
21546;SDS011;41275;51.912;4.388;2023-07-29T10:27:10;3.15;;;0.47;;
21546;SDS011;41275;51.912;4.388;2023-07-29T10:32:38;3.70;;;1.00;;
21546;SDS011;41275;51.912;4.388;2023-07-29T10:38:04;1.97;;;1.00;;
21546;SDS011;41275;51.912;4.388;2023-07-29T10:43:27;1.90;;;1.05;;
21546;SDS011;41275;51.912;4.388;2023-07-29T10:48:56;1.83;;;1.00;;
21546;SDS011;41275;51.912;4.388;2023-07-29T10:54:18;1.48;;;0.90;;
21546;SDS011;41275;51.912;4.388;2023-07-29T10:59:39;1.60;;;0.80;;
21546;SDS011;41275;51.912;4.388;2023-07-29T11:05:07;3.30;;;1.17;;
21546;SDS011;41275;51.912;4.388;2023-07-29T11:10:42;3.05;;;0.90;;
21546;SDS011;41275;51.912;4.388;2023-07-29T11:16:09;1.80;;;1.10;;
21546;SDS011;41275;51.912;4.388;2023-07-29T11:21:31;1.75;;;1.02;;
21546;SDS011;41275;51.912;4.388;2023-07-29T11:26:54;2.50;;;1.23;;
21546;SDS011;41275;51.912;4.388;2023-07-29T11:32:15;2.70;;;1.10;;
21546;SDS011;41275;51.912;4.388;2023-07-29T11:37:37;1.88;;;0.90;;
21546;SDS011;41275;51.912;4.388;2023-07-29T11:42:59;4.43;;;1.17;;
21546;SDS011;41275;51.912;4.388;2023-07-29T11:48:27;4.60;;;1.02;;
21546;SDS011;41275;51.912;4.388;2023-07-29T11:53:49;4.72;;;1.17;;
21546;SDS011;41275;51.912;4.388;2023-07-29T11:59:10;3.47;;;1.17;;
21546;SDS011;41275;51.912;4.388;2023-07-29T12:04:32;3.43;;;1.03;;
21546;SDS011;41275;51.912;4.388;2023-07-29T12:09:54;1.58;;;0.80;;
21546;SDS011;41275;51.912;4.388;2023-07-29T12:15:26;2.53;;;1.10;;
21546;SDS011;41275;51.912;4.388;2023-07-29T12:20:48;3.13;;;1.10;;
21546;SDS011;41275;51.912;4.388;2023-07-29T12:26:12;3.60;;;0.77;;
21546;SDS011;41275;51.912;4.388;2023-07-29T12:31:37;3.95;;;0.80;;
21546;SDS011;41275;51.912;4.388;2023-07-29T12:36:58;2.28;;;0.77;;
21546;SDS011;41275;51.912;4.388;2023-07-29T12:42:23;2.57;;;0.83;;
21546;SDS011;41275;51.912;4.388;2023-07-29T12:47:44;1.60;;;0.67;;
21546;SDS011;41275;51.912;4.388;2023-07-29T12:53:06;3.92;;;1.30;;
21546;SDS011;41275;51.912;4.388;2023-07-29T12:58:30;2.08;;;0.80;;
21546;SDS011;41275;51.912;4.388;2023-07-29T13:03:51;3.30;;;1.03;;
21546;SDS011;41275;51.912;4.388;2023-07-29T13:09:13;4.00;;;1.00;;
21546;SDS011;41275;51.912;4.388;2023-07-29T13:14:34;1.73;;;0.60;;
21546;SDS011;41275;51.912;4.388;2023-07-29T13:19:56;2.70;;;0.77;;
21546;SDS011;41275;51.912;4.388;2023-07-29T13:25:17;2.50;;;0.80;;
21546;SDS011;41275;51.912;4.388;2023-07-29T13:30:38;1.90;;;0.70;;
21546;SDS011;41275;51.912;4.388;2023-07-29T13:36:00;1.98;;;0.70;;
21546;SDS011;41275;51.912;4.388;2023-07-29T13:41:25;4.00;;;0.88;;
21546;SDS011;41275;51.912;4.388;2023-07-29T13:46:46;2.20;;;0.50;;
21546;SDS011;41275;51.912;4.388;2023-07-29T13:52:07;2.30;;;0.73;;
21546;SDS011;41275;51.912;4.388;2023-07-29T13:57:28;0.80;;;0.50;;
21546;SDS011;41275;51.912;4.388;2023-07-29T14:02:50;1.00;;;0.50;;
21546;SDS011;41275;51.912;4.388;2023-07-29T14:08:11;1.00;;;0.40;;
21546;SDS011;41275;51.912;4.388;2023-07-29T14:13:32;1.42;;;0.50;;
21546;SDS011;41275;51.912;4.388;2023-07-29T14:18:53;3.00;;;0.70;;
21546;SDS011;41275;51.912;4.388;2023-07-29T14:24:14;2.85;;;0.50;;
21546;SDS011;41275;51.912;4.388;2023-07-29T14:29:36;1.30;;;0.50;;
21546;SDS011;41275;51.912;4.388;2023-07-29T14:34:57;1.52;;;0.60;;
21546;SDS011;41275;51.912;4.388;2023-07-29T14:40:18;1.80;;;0.70;;
21546;SDS011;41275;51.912;4.388;2023-07-29T14:45:39;3.17;;;0.90;;
21546;SDS011;41275;51.912;4.388;2023-07-29T14:51:00;1.73;;;0.40;;
21546;SDS011;41275;51.912;4.388;2023-07-29T14:56:22;1.87;;;0.63;;
21546;SDS011;41275;51.912;4.388;2023-07-29T15:01:43;1.00;;;0.52;;
21546;SDS011;41275;51.912;4.388;2023-07-29T15:07:04;1.63;;;0.57;;
21546;SDS011;41275;51.912;4.388;2023-07-29T15:12:26;0.97;;;0.40;;
21546;SDS011;41275;51.912;4.388;2023-07-29T15:17:47;2.47;;;0.63;;
21546;SDS011;41275;51.912;4.388;2023-07-29T15:23:08;1.50;;;0.60;;
21546;SDS011;41275;51.912;4.388;2023-07-29T15:28:29;2.80;;;0.65;;
21546;SDS011;41275;51.912;4.388;2023-07-29T15:33:50;1.13;;;0.47;;
21546;SDS011;41275;51.912;4.388;2023-07-29T15:39:12;3.60;;;0.88;;
21546;SDS011;41275;51.912;4.388;2023-07-29T15:44:33;5.43;;;1.10;;
21546;SDS011;41275;51.912;4.388;2023-07-29T15:49:54;2.53;;;0.80;;
21546;SDS011;41275;51.912;4.388;2023-07-29T15:55:15;3.60;;;1.08;;
21546;SDS011;41275;51.912;4.388;2023-07-29T16:00:36;1.48;;;0.82;;
21546;SDS011;41275;51.912;4.388;2023-07-29T16:05:58;4.20;;;1.20;;
21546;SDS011;41275;51.912;4.388;2023-07-29T16:11:19;2.67;;;0.80;;
21546;SDS011;41275;51.912;4.388;2023-07-29T16:16:41;3.88;;;1.00;;
21546;SDS011;41275;51.912;4.388;2023-07-29T16:22:03;4.68;;;1.25;;
21546;SDS011;41275;51.912;4.388;2023-07-29T16:27:24;3.42;;;0.88;;
21546;SDS011;41275;51.912;4.388;2023-07-29T16:32:46;7.53;;;1.40;;
21546;SDS011;41275;51.912;4.388;2023-07-29T16:38:08;3.33;;;1.00;;
21546;SDS011;41275;51.912;4.388;2023-07-29T16:43:29;4.43;;;1.10;;
21546;SDS011;41275;51.912;4.388;2023-07-29T16:48:50;4.57;;;1.03;;
21546;SDS011;41275;51.912;4.388;2023-07-29T16:54:11;2.57;;;1.00;;
21546;SDS011;41275;51.912;4.388;2023-07-29T16:59:34;6.03;;;1.50;;
21546;SDS011;41275;51.912;4.388;2023-07-29T17:04:55;7.07;;;1.40;;
21546;SDS011;41275;51.912;4.388;2023-07-29T17:10:17;7.38;;;1.45;;
21546;SDS011;41275;51.912;4.388;2023-07-29T17:15:38;6.77;;;1.40;;
21546;SDS011;41275;51.912;4.388;2023-07-29T17:20:59;5.40;;;1.20;;
21546;SDS011;41275;51.912;4.388;2023-07-29T17:26:20;6.05;;;1.38;;
21546;SDS011;41275;51.912;4.388;2023-07-29T17:31:42;10.05;;;1.35;;
21546;SDS011;41275;51.912;4.388;2023-07-29T17:37:04;5.65;;;1.00;;
21546;SDS011;41275;51.912;4.388;2023-07-29T17:42:25;6.68;;;1.23;;
21546;SDS011;41275;51.912;4.388;2023-07-29T17:47:47;6.32;;;1.73;;
21546;SDS011;41275;51.912;4.388;2023-07-29T17:53:08;5.70;;;1.40;;
21546;SDS011;41275;51.912;4.388;2023-07-29T17:58:30;5.97;;;1.50;;
21546;SDS011;41275;51.912;4.388;2023-07-29T18:03:51;6.00;;;1.20;;
21546;SDS011;41275;51.912;4.388;2023-07-29T18:09:15;6.18;;;1.10;;
21546;SDS011;41275;51.912;4.388;2023-07-29T18:14:37;6.75;;;1.30;;
21546;SDS011;41275;51.912;4.388;2023-07-29T18:19:59;5.38;;;1.10;;
21546;SDS011;41275;51.912;4.388;2023-07-29T18:25:20;6.95;;;1.48;;
21546;SDS011;41275;51.912;4.388;2023-07-29T18:30:42;6.00;;;1.10;;
21546;SDS011;41275;51.912;4.388;2023-07-29T18:36:03;4.57;;;1.20;;
21546;SDS011;41275;51.912;4.388;2023-07-29T18:41:24;6.83;;;1.20;;
21546;SDS011;41275;51.912;4.388;2023-07-29T18:46:47;6.47;;;1.25;;
21546;SDS011;41275;51.912;4.388;2023-07-29T18:52:09;7.40;;;1.30;;
21546;SDS011;41275;51.912;4.388;2023-07-29T18:57:30;6.75;;;1.70;;
21546;SDS011;41275;51.912;4.388;2023-07-29T19:02:51;6.22;;;1.42;;
21546;SDS011;41275;51.912;4.388;2023-07-29T19:08:14;7.32;;;1.67;;
21546;SDS011;41275;51.912;4.388;2023-07-29T19:13:35;10.10;;;1.35;;
21546;SDS011;41275;51.912;4.388;2023-07-29T19:18:56;6.60;;;1.30;;
21546;SDS011;41275;51.912;4.388;2023-07-29T19:24:18;8.57;;;1.40;;
21546;SDS011;41275;51.912;4.388;2023-07-29T19:29:39;7.63;;;1.57;;
21546;SDS011;41275;51.912;4.388;2023-07-29T19:35:00;7.70;;;1.33;;
21546;SDS011;41275;51.912;4.388;2023-07-29T19:40:21;6.93;;;1.27;;
21546;SDS011;41275;51.912;4.388;2023-07-29T19:45:47;6.00;;;1.33;;
21546;SDS011;41275;51.912;4.388;2023-07-29T19:51:08;9.60;;;1.58;;
21546;SDS011;41275;51.912;4.388;2023-07-29T19:56:30;7.40;;;1.10;;
21546;SDS011;41275;51.912;4.388;2023-07-29T20:01:51;7.15;;;1.17;;
21546;SDS011;41275;51.912;4.388;2023-07-29T20:07:12;7.22;;;1.90;;
21546;SDS011;41275;51.912;4.388;2023-07-29T20:12:33;7.70;;;1.30;;
21546;SDS011;41275;51.912;4.388;2023-07-29T20:17:54;10.80;;;1.10;;
21546;SDS011;41275;51.912;4.388;2023-07-29T20:23:16;5.03;;;1.00;;
21546;SDS011;41275;51.912;4.388;2023-07-29T20:28:37;7.10;;;1.20;;
21546;SDS011;41275;51.912;4.388;2023-07-29T20:33:58;9.30;;;1.60;;
21546;SDS011;41275;51.912;4.388;2023-07-29T20:39:19;7.97;;;1.70;;
21546;SDS011;41275;51.912;4.388;2023-07-29T20:44:41;6.60;;;1.10;;
21546;SDS011;41275;51.912;4.388;2023-07-29T20:50:02;4.37;;;1.03;;
21546;SDS011;41275;51.912;4.388;2023-07-29T20:55:24;5.73;;;1.50;;
21546;SDS011;41275;51.912;4.388;2023-07-29T21:00:45;12.02;;;1.58;;
21546;SDS011;41275;51.912;4.388;2023-07-29T21:06:09;7.70;;;1.40;;
21546;SDS011;41275;51.912;4.388;2023-07-29T21:11:31;6.97;;;1.45;;
21546;SDS011;41275;51.912;4.388;2023-07-29T21:16:52;5.53;;;1.20;;
21546;SDS011;41275;51.912;4.388;2023-07-29T21:22:13;10.18;;;1.42;;
21546;SDS011;41275;51.912;4.388;2023-07-29T21:27:34;6.95;;;1.90;;
21546;SDS011;41275;51.912;4.388;2023-07-29T21:32:56;8.52;;;1.50;;
21546;SDS011;41275;51.912;4.388;2023-07-29T21:38:17;8.50;;;1.50;;
21546;SDS011;41275;51.912;4.388;2023-07-29T21:43:39;7.03;;;1.20;;
21546;SDS011;41275;51.912;4.388;2023-07-29T21:49:00;7.38;;;1.00;;
21546;SDS011;41275;51.912;4.388;2023-07-29T21:54:21;8.07;;;1.50;;
21546;SDS011;41275;51.912;4.388;2023-07-29T21:59:42;9.05;;;1.45;;
21546;SDS011;41275;51.912;4.388;2023-07-29T22:05:04;7.97;;;1.85;;
21546;SDS011;41275;51.912;4.388;2023-07-29T22:10:25;10.80;;;1.38;;
21546;SDS011;41275;51.912;4.388;2023-07-29T22:15:46;9.18;;;1.08;;
21546;SDS011;41275;51.912;4.388;2023-07-29T22:21:08;6.15;;;1.02;;
21546;SDS011;41275;51.912;4.388;2023-07-29T22:26:29;8.20;;;1.50;;
21546;SDS011;41275;51.912;4.388;2023-07-29T22:31:51;6.70;;;1.23;;
21546;SDS011;41275;51.912;4.388;2023-07-29T22:37:12;6.33;;;1.17;;
21546;SDS011;41275;51.912;4.388;2023-07-29T22:42:34;10.50;;;1.60;;
21546;SDS011;41275;51.912;4.388;2023-07-29T22:47:55;8.63;;;1.30;;
21546;SDS011;41275;51.912;4.388;2023-07-29T22:53:16;9.05;;;1.90;;
21546;SDS011;41275;51.912;4.388;2023-07-29T22:58:38;8.13;;;1.85;;
21546;SDS011;41275;51.912;4.388;2023-07-29T23:03:59;4.68;;;1.38;;
21546;SDS011;41275;51.912;4.388;2023-07-29T23:09:20;6.87;;;1.27;;
21546;SDS011;41275;51.912;4.388;2023-07-29T23:14:42;7.18;;;1.40;;
21546;SDS011;41275;51.912;4.388;2023-07-29T23:20:03;6.53;;;1.30;;
21546;SDS011;41275;51.912;4.388;2023-07-29T23:25:25;8.48;;;1.55;;
21546;SDS011;41275;51.912;4.388;2023-07-29T23:30:46;6.40;;;1.25;;
21546;SDS011;41275;51.912;4.388;2023-07-29T23:36:07;8.87;;;1.80;;
21546;SDS011;41275;51.912;4.388;2023-07-29T23:41:29;8.57;;;1.83;;
21546;SDS011;41275;51.912;4.388;2023-07-29T23:46:50;14.07;;;1.98;;
21546;SDS011;41275;51.912;4.388;2023-07-29T23:52:11;5.90;;;1.60;;
21546;SDS011;41275;51.912;4.388;2023-07-29T23:57:32;13.18;;;2.00;;
